sensor_id;sensor_type;location;lat;lon;timestamp;P1;durP1;ratioP1;P2;durP2;ratioP2
7583;SDS011;3833;41.764;26.204;2023-02-28T00:01:20;17.70;;;12.90;;
7583;SDS011;3833;41.764;26.204;2023-02-28T00:03:47;12.20;;;5.83;;
7583;SDS011;3833;41.764;26.204;2023-02-28T00:06:16;13.87;;;6.30;;
7583;SDS011;3833;41.764;26.204;2023-02-28T00:08:43;15.67;;;6.43;;
7583;SDS011;3833;41.764;26.204;2023-02-28T00:11:10;18.80;;;7.63;;
7583;SDS011;3833;41.764;26.204;2023-02-28T00:13:39;15.70;;;7.27;;
7583;SDS011;3833;41.764;26.204;2023-02-28T00:16:08;15.80;;;7.77;;
7583;SDS011;3833;41.764;26.204;2023-02-28T00:18:38;23.60;;;8.97;;
7583;SDS011;3833;41.764;26.204;2023-02-28T00:23:34;18.57;;;10.53;;
7583;SDS011;3833;41.764;26.204;2023-02-28T00:26:01;17.97;;;7.90;;
7583;SDS011;3833;41.764;26.204;2023-02-28T00:28:28;15.20;;;11.53;;
7583;SDS011;3833;41.764;26.204;2023-02-28T00:30:55;15.07;;;11.00;;
7583;SDS011;3833;41.764;26.204;2023-02-28T00:33:22;11.40;;;10.17;;
7583;SDS011;3833;41.764;26.204;2023-02-28T00:35:49;18.67;;;11.17;;
7583;SDS011;3833;41.764;26.204;2023-02-28T00:38:16;16.50;;;6.33;;
7583;SDS011;3833;41.764;26.204;2023-02-28T00:40:44;12.53;;;6.80;;
7583;SDS011;3833;41.764;26.204;2023-02-28T00:43:11;11.17;;;6.73;;
7583;SDS011;3833;41.764;26.204;2023-02-28T00:45:38;16.77;;;7.10;;
7583;SDS011;3833;41.764;26.204;2023-02-28T00:48:05;20.20;;;12.63;;
7583;SDS011;3833;41.764;26.204;2023-02-28T00:50:32;16.73;;;9.97;;
7583;SDS011;3833;41.764;26.204;2023-02-28T00:52:59;17.20;;;10.03;;
7583;SDS011;3833;41.764;26.204;2023-02-28T00:55:26;16.77;;;9.80;;
7583;SDS011;3833;41.764;26.204;2023-02-28T00:57:54;13.43;;;7.17;;
7583;SDS011;3833;41.764;26.204;2023-02-28T01:00:21;17.80;;;6.83;;
7583;SDS011;3833;41.764;26.204;2023-02-28T01:02:48;17.47;;;8.00;;
7583;SDS011;3833;41.764;26.204;2023-02-28T01:05:14;18.47;;;7.40;;
7583;SDS011;3833;41.764;26.204;2023-02-28T01:07:41;15.93;;;7.03;;
7583;SDS011;3833;41.764;26.204;2023-02-28T01:10:09;13.13;;;9.67;;
7583;SDS011;3833;41.764;26.204;2023-02-28T01:12:37;17.90;;;9.87;;
7583;SDS011;3833;41.764;26.204;2023-02-28T01:15:05;16.47;;;9.03;;
7583;SDS011;3833;41.764;26.204;2023-02-28T01:17:33;16.47;;;10.33;;
7583;SDS011;3833;41.764;26.204;2023-02-28T01:20:00;12.90;;;7.73;;
7583;SDS011;3833;41.764;26.204;2023-02-28T01:22:27;14.50;;;7.17;;
7583;SDS011;3833;41.764;26.204;2023-02-28T01:24:53;15.00;;;9.87;;
7583;SDS011;3833;41.764;26.204;2023-02-28T01:27:20;14.20;;;10.13;;
7583;SDS011;3833;41.764;26.204;2023-02-28T01:29:47;16.40;;;10.43;;
7583;SDS011;3833;41.764;26.204;2023-02-28T01:32:15;17.37;;;11.33;;
7583;SDS011;3833;41.764;26.204;2023-02-28T01:34:42;12.47;;;6.63;;
7583;SDS011;3833;41.764;26.204;2023-02-28T01:37:09;16.97;;;8.10;;
7583;SDS011;3833;41.764;26.204;2023-02-28T01:39:36;23.43;;;7.30;;
7583;SDS011;3833;41.764;26.204;2023-02-28T01:42:03;10.83;;;6.70;;
7583;SDS011;3833;41.764;26.204;2023-02-28T01:47:28;16.63;;;9.13;;
7583;SDS011;3833;41.764;26.204;2023-02-28T01:49:58;17.87;;;10.83;;
7583;SDS011;3833;41.764;26.204;2023-02-28T01:52:27;13.00;;;9.40;;
7583;SDS011;3833;41.764;26.204;2023-02-28T01:54:55;14.33;;;6.40;;
7583;SDS011;3833;41.764;26.204;2023-02-28T01:57:25;13.97;;;6.80;;
7583;SDS011;3833;41.764;26.204;2023-02-28T01:59:56;13.83;;;7.07;;
7583;SDS011;3833;41.764;26.204;2023-02-28T02:02:28;15.57;;;7.37;;
7583;SDS011;3833;41.764;26.204;2023-02-28T02:04:56;13.20;;;7.23;;
7583;SDS011;3833;41.764;26.204;2023-02-28T02:07:28;17.47;;;7.33;;
7583;SDS011;3833;41.764;26.204;2023-02-28T02:10:02;12.07;;;7.37;;
7583;SDS011;3833;41.764;26.204;2023-02-28T02:12:34;10.97;;;6.80;;
7583;SDS011;3833;41.764;26.204;2023-02-28T02:15:17;14.73;;;6.33;;
7583;SDS011;3833;41.764;26.204;2023-02-28T02:17:50;12.40;;;7.17;;
7583;SDS011;3833;41.764;26.204;2023-02-28T02:20:37;10.57;;;8.70;;
7583;SDS011;3833;41.764;26.204;2023-02-28T02:26:30;16.23;;;7.43;;
7583;SDS011;3833;41.764;26.204;2023-02-28T02:29:27;17.93;;;7.33;;
7583;SDS011;3833;41.764;26.204;2023-02-28T02:32:13;12.47;;;7.07;;
7583;SDS011;3833;41.764;26.204;2023-02-28T02:35:01;14.23;;;6.57;;
7583;SDS011;3833;41.764;26.204;2023-02-28T02:37:38;11.63;;;9.00;;
7583;SDS011;3833;41.764;26.204;2023-02-28T02:40:11;14.23;;;9.70;;
7583;SDS011;3833;41.764;26.204;2023-02-28T02:42:45;12.93;;;9.40;;
7583;SDS011;3833;41.764;26.204;2023-02-28T02:45:18;11.30;;;10.10;;
7583;SDS011;3833;41.764;26.204;2023-02-28T02:47:50;17.97;;;7.07;;
7583;SDS011;3833;41.764;26.204;2023-02-28T02:50:19;11.87;;;6.80;;
7583;SDS011;3833;41.764;26.204;2023-02-28T02:52:51;17.43;;;7.33;;
7583;SDS011;3833;41.764;26.204;2023-02-28T02:55:22;13.17;;;7.33;;
7583;SDS011;3833;41.764;26.204;2023-02-28T02:57:51;11.63;;;8.70;;
7583;SDS011;3833;41.764;26.204;2023-02-28T03:00:23;16.07;;;9.33;;
7583;SDS011;3833;41.764;26.204;2023-02-28T03:02:56;12.07;;;9.03;;
7583;SDS011;3833;41.764;26.204;2023-02-28T03:05:26;14.77;;;8.27;;
7583;SDS011;3833;41.764;26.204;2023-02-28T03:07:55;16.63;;;7.90;;
7583;SDS011;3833;41.764;26.204;2023-02-28T03:10:35;16.87;;;7.97;;
7583;SDS011;3833;41.764;26.204;2023-02-28T03:13:11;17.00;;;8.93;;
7583;SDS011;3833;41.764;26.204;2023-02-28T03:15:50;18.43;;;9.00;;
7583;SDS011;3833;41.764;26.204;2023-02-28T03:18:24;18.70;;;8.37;;
7583;SDS011;3833;41.764;26.204;2023-02-28T03:21:01;15.77;;;7.90;;
7583;SDS011;3833;41.764;26.204;2023-02-28T03:23:38;13.57;;;8.17;;
7583;SDS011;3833;41.764;26.204;2023-02-28T03:26:12;13.60;;;8.13;;
7583;SDS011;3833;41.764;26.204;2023-02-28T03:28:48;19.20;;;9.47;;
7583;SDS011;3833;41.764;26.204;2023-02-28T03:31:22;16.43;;;8.43;;
7583;SDS011;3833;41.764;26.204;2023-02-28T03:33:58;17.40;;;8.40;;
7583;SDS011;3833;41.764;26.204;2023-02-28T03:36:32;18.73;;;8.20;;
7583;SDS011;3833;41.764;26.204;2023-02-28T03:39:09;16.87;;;8.73;;
7583;SDS011;3833;41.764;26.204;2023-02-28T03:41:41;17.30;;;8.30;;
7583;SDS011;3833;41.764;26.204;2023-02-28T03:44:13;13.33;;;8.77;;
7583;SDS011;3833;41.764;26.204;2023-02-28T03:46:44;22.90;;;13.43;;
7583;SDS011;3833;41.764;26.204;2023-02-28T03:49:16;19.80;;;10.97;;
7583;SDS011;3833;41.764;26.204;2023-02-28T03:51:48;24.13;;;11.30;;
7583;SDS011;3833;41.764;26.204;2023-02-28T03:54:18;22.10;;;11.13;;
7583;SDS011;3833;41.764;26.204;2023-02-28T03:56:51;23.67;;;10.63;;
7583;SDS011;3833;41.764;26.204;2023-02-28T03:59:24;19.67;;;10.63;;
7583;SDS011;3833;41.764;26.204;2023-02-28T04:01:54;25.17;;;12.40;;
7583;SDS011;3833;41.764;26.204;2023-02-28T04:04:23;21.93;;;11.87;;
7583;SDS011;3833;41.764;26.204;2023-02-28T04:06:53;24.47;;;11.90;;
7583;SDS011;3833;41.764;26.204;2023-02-28T04:09:28;21.57;;;10.93;;
7583;SDS011;3833;41.764;26.204;2023-02-28T04:11:54;23.60;;;12.50;;
7583;SDS011;3833;41.764;26.204;2023-02-28T04:14:21;25.20;;;11.87;;
7583;SDS011;3833;41.764;26.204;2023-02-28T04:16:48;23.70;;;12.13;;
7583;SDS011;3833;41.764;26.204;2023-02-28T04:19:17;24.90;;;12.97;;
7583;SDS011;3833;41.764;26.204;2023-02-28T04:21:44;20.73;;;10.47;;
7583;SDS011;3833;41.764;26.204;2023-02-28T04:24:15;17.43;;;9.43;;
7583;SDS011;3833;41.764;26.204;2023-02-28T04:26:43;15.43;;;9.63;;
7583;SDS011;3833;41.764;26.204;2023-02-28T04:29:11;14.13;;;8.13;;
7583;SDS011;3833;41.764;26.204;2023-02-28T04:31:39;21.03;;;11.50;;
7583;SDS011;3833;41.764;26.204;2023-02-28T04:34:06;24.53;;;13.50;;
7583;SDS011;3833;41.764;26.204;2023-02-28T04:36:33;21.00;;;13.30;;
7583;SDS011;3833;41.764;26.204;2023-02-28T04:39:00;20.80;;;14.10;;
7583;SDS011;3833;41.764;26.204;2023-02-28T04:41:30;25.57;;;14.67;;
7583;SDS011;3833;41.764;26.204;2023-02-28T04:43:57;21.37;;;13.83;;
7583;SDS011;3833;41.764;26.204;2023-02-28T04:46:24;21.17;;;14.73;;
7583;SDS011;3833;41.764;26.204;2023-02-28T04:48:51;25.80;;;15.20;;
7583;SDS011;3833;41.764;26.204;2023-02-28T04:51:18;25.13;;;15.70;;
7583;SDS011;3833;41.764;26.204;2023-02-28T04:53:46;26.47;;;17.37;;
7583;SDS011;3833;41.764;26.204;2023-02-28T04:56:13;25.47;;;16.60;;
7583;SDS011;3833;41.764;26.204;2023-02-28T04:58:43;25.40;;;16.67;;
7583;SDS011;3833;41.764;26.204;2023-02-28T05:01:17;29.30;;;17.90;;
7583;SDS011;3833;41.764;26.204;2023-02-28T05:03:46;25.60;;;18.27;;
7583;SDS011;3833;41.764;26.204;2023-02-28T05:06:14;25.47;;;17.20;;
7583;SDS011;3833;41.764;26.204;2023-02-28T05:08:41;26.77;;;19.23;;
7583;SDS011;3833;41.764;26.204;2023-02-28T05:11:12;31.23;;;19.67;;
7583;SDS011;3833;41.764;26.204;2023-02-28T05:13:41;26.63;;;18.97;;
7583;SDS011;3833;41.764;26.204;2023-02-28T05:16:09;35.23;;;20.43;;
7583;SDS011;3833;41.764;26.204;2023-02-28T05:18:36;31.13;;;20.97;;
7583;SDS011;3833;41.764;26.204;2023-02-28T05:21:03;34.17;;;20.40;;
7583;SDS011;3833;41.764;26.204;2023-02-28T05:23:30;29.10;;;19.20;;
7583;SDS011;3833;41.764;26.204;2023-02-28T05:25:57;29.83;;;16.80;;
7583;SDS011;3833;41.764;26.204;2023-02-28T05:28:24;27.30;;;15.67;;
7583;SDS011;3833;41.764;26.204;2023-02-28T05:30:51;23.50;;;14.67;;
7583;SDS011;3833;41.764;26.204;2023-02-28T05:33:19;26.90;;;14.37;;
7583;SDS011;3833;41.764;26.204;2023-02-28T05:35:46;23.27;;;15.30;;
7583;SDS011;3833;41.764;26.204;2023-02-28T05:38:13;25.50;;;15.30;;
7583;SDS011;3833;41.764;26.204;2023-02-28T05:40:40;22.77;;;14.87;;
7583;SDS011;3833;41.764;26.204;2023-02-28T05:43:08;28.30;;;17.60;;
7583;SDS011;3833;41.764;26.204;2023-02-28T05:45:37;33.27;;;18.37;;
7583;SDS011;3833;41.764;26.204;2023-02-28T05:48:04;33.87;;;18.73;;
7583;SDS011;3833;41.764;26.204;2023-02-28T05:50:32;27.93;;;17.20;;
7583;SDS011;3833;41.764;26.204;2023-02-28T05:52:59;28.07;;;16.80;;
7583;SDS011;3833;41.764;26.204;2023-02-28T05:55:26;28.33;;;16.37;;
7583;SDS011;3833;41.764;26.204;2023-02-28T05:57:53;28.57;;;17.00;;
7583;SDS011;3833;41.764;26.204;2023-02-28T06:00:19;28.67;;;16.57;;
7583;SDS011;3833;41.764;26.204;2023-02-28T06:02:47;28.90;;;17.03;;
7583;SDS011;3833;41.764;26.204;2023-02-28T06:05:14;29.50;;;15.83;;
7583;SDS011;3833;41.764;26.204;2023-02-28T06:07:44;33.10;;;15.40;;
7583;SDS011;3833;41.764;26.204;2023-02-28T06:10:11;25.67;;;15.23;;
7583;SDS011;3833;41.764;26.204;2023-02-28T06:12:38;29.17;;;15.53;;
7583;SDS011;3833;41.764;26.204;2023-02-28T06:15:07;27.63;;;15.43;;
7583;SDS011;3833;41.764;26.204;2023-02-28T06:17:37;28.17;;;15.10;;
7583;SDS011;3833;41.764;26.204;2023-02-28T06:20:04;24.27;;;15.67;;
7583;SDS011;3833;41.764;26.204;2023-02-28T06:22:32;24.27;;;14.60;;
7583;SDS011;3833;41.764;26.204;2023-02-28T06:25:00;28.63;;;16.03;;
7583;SDS011;3833;41.764;26.204;2023-02-28T06:27:27;32.80;;;15.60;;
7583;SDS011;3833;41.764;26.204;2023-02-28T06:29:54;31.80;;;15.83;;
7583;SDS011;3833;41.764;26.204;2023-02-28T06:32:21;35.97;;;15.87;;
7583;SDS011;3833;41.764;26.204;2023-02-28T06:34:48;34.23;;;16.27;;
7583;SDS011;3833;41.764;26.204;2023-02-28T06:37:16;31.27;;;15.33;;
7583;SDS011;3833;41.764;26.204;2023-02-28T06:39:43;34.70;;;19.70;;
7583;SDS011;3833;41.764;26.204;2023-02-28T06:42:12;36.43;;;16.50;;
7583;SDS011;3833;41.764;26.204;2023-02-28T06:44:39;32.17;;;17.37;;
7583;SDS011;3833;41.764;26.204;2023-02-28T06:47:05;34.47;;;15.93;;
7583;SDS011;3833;41.764;26.204;2023-02-28T06:49:33;30.33;;;14.70;;
7583;SDS011;3833;41.764;26.204;2023-02-28T06:52:01;29.83;;;13.10;;
7583;SDS011;3833;41.764;26.204;2023-02-28T06:54:28;29.57;;;14.43;;
7583;SDS011;3833;41.764;26.204;2023-02-28T06:56:56;24.57;;;14.37;;
7583;SDS011;3833;41.764;26.204;2023-02-28T06:59:25;32.07;;;15.57;;
7583;SDS011;3833;41.764;26.204;2023-02-28T07:01:52;35.10;;;15.50;;
7583;SDS011;3833;41.764;26.204;2023-02-28T07:04:20;31.73;;;13.80;;
7583;SDS011;3833;41.764;26.204;2023-02-28T07:06:47;22.30;;;13.00;;
7583;SDS011;3833;41.764;26.204;2023-02-28T07:09:13;27.73;;;13.50;;
7583;SDS011;3833;41.764;26.204;2023-02-28T07:11:40;21.37;;;10.97;;
7583;SDS011;3833;41.764;26.204;2023-02-28T07:14:08;24.00;;;13.37;;
7583;SDS011;3833;41.764;26.204;2023-02-28T07:16:37;20.33;;;12.47;;
7583;SDS011;3833;41.764;26.204;2023-02-28T07:19:04;21.43;;;13.87;;
7583;SDS011;3833;41.764;26.204;2023-02-28T07:21:30;20.83;;;13.70;;
7583;SDS011;3833;41.764;26.204;2023-02-28T07:23:57;25.87;;;11.73;;
7583;SDS011;3833;41.764;26.204;2023-02-28T07:26:24;25.17;;;12.67;;
7583;SDS011;3833;41.764;26.204;2023-02-28T07:28:51;27.43;;;11.83;;
7583;SDS011;3833;41.764;26.204;2023-02-28T07:31:18;23.67;;;13.40;;
7583;SDS011;3833;41.764;26.204;2023-02-28T07:33:46;21.30;;;12.10;;
7583;SDS011;3833;41.764;26.204;2023-02-28T07:36:14;27.27;;;13.00;;
7583;SDS011;3833;41.764;26.204;2023-02-28T07:38:44;21.00;;;11.93;;
7583;SDS011;3833;41.764;26.204;2023-02-28T07:41:14;22.63;;;15.80;;
7583;SDS011;3833;41.764;26.204;2023-02-28T07:43:41;23.03;;;14.57;;
7583;SDS011;3833;41.764;26.204;2023-02-28T07:46:10;20.40;;;13.87;;
7583;SDS011;3833;41.764;26.204;2023-02-28T07:48:40;20.10;;;14.03;;
7583;SDS011;3833;41.764;26.204;2023-02-28T07:51:08;17.50;;;10.97;;
7583;SDS011;3833;41.764;26.204;2023-02-28T07:53:35;18.83;;;10.37;;
7583;SDS011;3833;41.764;26.204;2023-02-28T07:56:02;19.03;;;11.00;;
7583;SDS011;3833;41.764;26.204;2023-02-28T07:58:30;17.97;;;10.67;;
7583;SDS011;3833;41.764;26.204;2023-02-28T08:00:57;22.37;;;10.50;;
7583;SDS011;3833;41.764;26.204;2023-02-28T08:03:30;20.47;;;14.97;;
7583;SDS011;3833;41.764;26.204;2023-02-28T08:05:57;19.63;;;13.43;;
7583;SDS011;3833;41.764;26.204;2023-02-28T08:08:26;23.80;;;14.23;;
7583;SDS011;3833;41.764;26.204;2023-02-28T08:10:57;24.30;;;13.60;;
7583;SDS011;3833;41.764;26.204;2023-02-28T08:13:25;18.83;;;10.30;;
7583;SDS011;3833;41.764;26.204;2023-02-28T08:15:53;23.30;;;10.77;;
7583;SDS011;3833;41.764;26.204;2023-02-28T08:18:20;20.20;;;14.37;;
7583;SDS011;3833;41.764;26.204;2023-02-28T08:20:47;18.00;;;16.13;;
7583;SDS011;3833;41.764;26.204;2023-02-28T08:23:14;18.67;;;13.20;;
7583;SDS011;3833;41.764;26.204;2023-02-28T08:25:43;16.17;;;12.23;;
7583;SDS011;3833;41.764;26.204;2023-02-28T08:28:10;15.93;;;9.90;;
7583;SDS011;3833;41.764;26.204;2023-02-28T08:30:36;18.60;;;9.70;;
7583;SDS011;3833;41.764;26.204;2023-02-28T08:33:06;15.03;;;9.60;;
7583;SDS011;3833;41.764;26.204;2023-02-28T08:35:34;15.53;;;9.70;;
7583;SDS011;3833;41.764;26.204;2023-02-28T08:38:02;14.97;;;9.20;;
7583;SDS011;3833;41.764;26.204;2023-02-28T08:40:29;14.67;;;9.40;;
7583;SDS011;3833;41.764;26.204;2023-02-28T08:42:57;18.53;;;14.03;;
7583;SDS011;3833;41.764;26.204;2023-02-28T08:45:24;14.13;;;12.73;;
7583;SDS011;3833;41.764;26.204;2023-02-28T08:47:51;12.20;;;10.90;;
7583;SDS011;3833;41.764;26.204;2023-02-28T08:50:20;12.20;;;10.60;;
7583;SDS011;3833;41.764;26.204;2023-02-28T08:52:47;11.53;;;7.50;;
7583;SDS011;3833;41.764;26.204;2023-02-28T08:55:14;15.10;;;8.77;;
7583;SDS011;3833;41.764;26.204;2023-02-28T08:57:41;14.50;;;8.73;;
7583;SDS011;3833;41.764;26.204;2023-02-28T09:00:10;14.77;;;10.40;;
7583;SDS011;3833;41.764;26.204;2023-02-28T09:02:38;16.57;;;10.70;;
7583;SDS011;3833;41.764;26.204;2023-02-28T09:05:05;11.87;;;8.93;;
7583;SDS011;3833;41.764;26.204;2023-02-28T09:07:33;16.80;;;11.10;;
7583;SDS011;3833;41.764;26.204;2023-02-28T09:10:00;15.47;;;11.60;;
7583;SDS011;3833;41.764;26.204;2023-02-28T09:12:27;12.47;;;11.17;;
7583;SDS011;3833;41.764;26.204;2023-02-28T09:14:58;15.27;;;13.40;;
7583;SDS011;3833;41.764;26.204;2023-02-28T09:17:26;15.23;;;10.33;;
7583;SDS011;3833;41.764;26.204;2023-02-28T09:19:53;13.40;;;10.40;;
7583;SDS011;3833;41.764;26.204;2023-02-28T09:22:19;19.97;;;10.53;;
7583;SDS011;3833;41.764;26.204;2023-02-28T09:24:46;17.60;;;10.63;;
7583;SDS011;3833;41.764;26.204;2023-02-28T09:27:14;19.63;;;17.50;;
7583;SDS011;3833;41.764;26.204;2023-02-28T09:29:41;18.97;;;17.00;;
7583;SDS011;3833;41.764;26.204;2023-02-28T09:32:08;24.37;;;17.47;;
7583;SDS011;3833;41.764;26.204;2023-02-28T09:34:37;19.07;;;17.00;;
7583;SDS011;3833;41.764;26.204;2023-02-28T09:37:04;15.77;;;11.13;;
7583;SDS011;3833;41.764;26.204;2023-02-28T09:39:30;16.47;;;11.73;;
7583;SDS011;3833;41.764;26.204;2023-02-28T09:41:57;15.90;;;11.73;;
7583;SDS011;3833;41.764;26.204;2023-02-28T09:44:26;18.50;;;11.60;;
7583;SDS011;3833;41.764;26.204;2023-02-28T09:46:58;25.27;;;22.73;;
7583;SDS011;3833;41.764;26.204;2023-02-28T09:49:33;27.23;;;24.50;;
7583;SDS011;3833;41.764;26.204;2023-02-28T09:52:05;22.47;;;20.27;;
7583;SDS011;3833;41.764;26.204;2023-02-28T09:54:35;24.63;;;19.67;;
7583;SDS011;3833;41.764;26.204;2023-02-28T09:57:06;19.80;;;11.37;;
7583;SDS011;3833;41.764;26.204;2023-02-28T10:05:33;22.00;;;17.73;;
7583;SDS011;3833;41.764;26.204;2023-02-28T10:08:06;21.30;;;17.57;;
7583;SDS011;3833;41.764;26.204;2023-02-28T10:10:39;26.87;;;17.13;;
7583;SDS011;3833;41.764;26.204;2023-02-28T10:13:12;19.83;;;17.57;;
7583;SDS011;3833;41.764;26.204;2023-02-28T10:15:43;20.00;;;13.13;;
7583;SDS011;3833;41.764;26.204;2023-02-28T10:18:14;22.77;;;13.53;;
7583;SDS011;3833;41.764;26.204;2023-02-28T10:20:48;25.03;;;15.33;;
7583;SDS011;3833;41.764;26.204;2023-02-28T10:23:19;23.17;;;18.17;;
7583;SDS011;3833;41.764;26.204;2023-02-28T10:25:50;25.37;;;17.97;;
7583;SDS011;3833;41.764;26.204;2023-02-28T10:28:21;24.33;;;21.07;;
7583;SDS011;3833;41.764;26.204;2023-02-28T10:30:48;26.00;;;17.43;;
7583;SDS011;3833;41.764;26.204;2023-02-28T10:33:21;26.83;;;17.00;;
7583;SDS011;3833;41.764;26.204;2023-02-28T10:35:51;26.30;;;16.87;;
7583;SDS011;3833;41.764;26.204;2023-02-28T10:38:20;24.57;;;17.70;;
7583;SDS011;3833;41.764;26.204;2023-02-28T10:40:48;26.13;;;20.60;;
7583;SDS011;3833;41.764;26.204;2023-02-28T10:43:20;25.50;;;21.50;;
7583;SDS011;3833;41.764;26.204;2023-02-28T10:45:53;24.93;;;21.07;;
7583;SDS011;3833;41.764;26.204;2023-02-28T10:48:30;24.13;;;15.77;;
7583;SDS011;3833;41.764;26.204;2023-02-28T10:51:02;23.83;;;17.37;;
7583;SDS011;3833;41.764;26.204;2023-02-28T10:53:34;28.03;;;18.67;;
7583;SDS011;3833;41.764;26.204;2023-02-28T10:56:06;26.30;;;20.13;;
7583;SDS011;3833;41.764;26.204;2023-02-28T10:58:45;27.50;;;22.47;;
7583;SDS011;3833;41.764;26.204;2023-02-28T11:01:20;23.50;;;19.63;;
7583;SDS011;3833;41.764;26.204;2023-02-28T11:03:49;26.93;;;22.17;;
7583;SDS011;3833;41.764;26.204;2023-02-28T11:06:19;25.37;;;17.10;;
7583;SDS011;3833;41.764;26.204;2023-02-28T11:08:49;31.07;;;24.60;;
7583;SDS011;3833;41.764;26.204;2023-02-28T11:11:18;25.97;;;22.27;;
7583;SDS011;3833;41.764;26.204;2023-02-28T11:13:49;26.40;;;20.77;;
7583;SDS011;3833;41.764;26.204;2023-02-28T11:16:18;29.80;;;24.50;;
7583;SDS011;3833;41.764;26.204;2023-02-28T11:18:48;24.53;;;16.67;;
7583;SDS011;3833;41.764;26.204;2023-02-28T11:21:23;23.57;;;21.13;;
7583;SDS011;3833;41.764;26.204;2023-02-28T11:23:54;24.37;;;20.97;;
7583;SDS011;3833;41.764;26.204;2023-02-28T11:26:38;22.07;;;19.37;;
7583;SDS011;3833;41.764;26.204;2023-02-28T11:29:11;28.10;;;18.90;;
7583;SDS011;3833;41.764;26.204;2023-02-28T11:31:45;30.53;;;19.50;;
7583;SDS011;3833;41.764;26.204;2023-02-28T11:34:27;24.57;;;19.63;;
7583;SDS011;3833;41.764;26.204;2023-02-28T11:36:57;22.73;;;18.40;;
7583;SDS011;3833;41.764;26.204;2023-02-28T11:39:25;21.83;;;17.90;;
7583;SDS011;3833;41.764;26.204;2023-02-28T11:41:59;29.20;;;18.60;;
7583;SDS011;3833;41.764;26.204;2023-02-28T11:44:49;24.33;;;17.23;;
7583;SDS011;3833;41.764;26.204;2023-02-28T11:47:30;29.83;;;18.60;;
7583;SDS011;3833;41.764;26.204;2023-02-28T11:50:10;23.67;;;16.23;;
7583;SDS011;3833;41.764;26.204;2023-02-28T11:52:48;20.60;;;18.27;;
7583;SDS011;3833;41.764;26.204;2023-02-28T11:55:19;25.97;;;20.13;;
7583;SDS011;3833;41.764;26.204;2023-02-28T11:58:07;21.30;;;19.03;;
7583;SDS011;3833;41.764;26.204;2023-02-28T12:00:52;23.93;;;16.70;;
7583;SDS011;3833;41.764;26.204;2023-02-28T12:03:27;21.03;;;16.03;;
7583;SDS011;3833;41.764;26.204;2023-02-28T12:06:08;20.77;;;18.10;;
7583;SDS011;3833;41.764;26.204;2023-02-28T12:08:47;20.00;;;16.83;;
7583;SDS011;3833;41.764;26.204;2023-02-28T12:11:28;19.23;;;16.50;;
7583;SDS011;3833;41.764;26.204;2023-02-28T12:14:14;17.60;;;15.77;;
7583;SDS011;3833;41.764;26.204;2023-02-28T12:17:03;22.17;;;15.27;;
7583;SDS011;3833;41.764;26.204;2023-02-28T12:19:45;21.90;;;15.30;;
7583;SDS011;3833;41.764;26.204;2023-02-28T12:22:21;25.00;;;16.73;;
7583;SDS011;3833;41.764;26.204;2023-02-28T12:25:03;21.50;;;16.53;;
7583;SDS011;3833;41.764;26.204;2023-02-28T12:27:51;24.50;;;16.77;;
7583;SDS011;3833;41.764;26.204;2023-02-28T12:30:19;19.93;;;16.40;;
7583;SDS011;3833;41.764;26.204;2023-02-28T12:32:51;27.27;;;16.93;;
7583;SDS011;3833;41.764;26.204;2023-02-28T12:35:23;29.33;;;20.43;;
7583;SDS011;3833;41.764;26.204;2023-02-28T12:37:55;30.07;;;20.53;;
7583;SDS011;3833;41.764;26.204;2023-02-28T12:40:31;28.63;;;21.43;;
7583;SDS011;3833;41.764;26.204;2023-02-28T12:43:07;29.70;;;20.80;;
7583;SDS011;3833;41.764;26.204;2023-02-28T12:45:39;28.03;;;20.93;;
7583;SDS011;3833;41.764;26.204;2023-02-28T12:48:08;32.50;;;21.20;;
7583;SDS011;3833;41.764;26.204;2023-02-28T12:50:39;26.30;;;20.10;;
7583;SDS011;3833;41.764;26.204;2023-02-28T12:53:09;24.80;;;19.43;;
7583;SDS011;3833;41.764;26.204;2023-02-28T12:55:45;22.83;;;18.97;;
7583;SDS011;3833;41.764;26.204;2023-02-28T12:58:20;24.57;;;18.00;;
7583;SDS011;3833;41.764;26.204;2023-02-28T13:01:06;27.27;;;19.70;;
7583;SDS011;3833;41.764;26.204;2023-02-28T13:07:02;31.83;;;20.47;;
7583;SDS011;3833;41.764;26.204;2023-02-28T13:09:41;24.80;;;18.93;;
7583;SDS011;3833;41.764;26.204;2023-02-28T13:12:20;25.60;;;18.83;;
7583;SDS011;3833;41.764;26.204;2023-02-28T13:14:48;26.07;;;19.23;;
7583;SDS011;3833;41.764;26.204;2023-02-28T13:17:17;27.57;;;19.07;;
7583;SDS011;3833;41.764;26.204;2023-02-28T13:19:46;29.67;;;20.13;;
7583;SDS011;3833;41.764;26.204;2023-02-28T13:31:33;25.00;;;17.57;;
7583;SDS011;3833;41.764;26.204;2023-02-28T13:34:38;24.27;;;16.57;;
7583;SDS011;3833;41.764;26.204;2023-02-28T13:40:06;26.03;;;18.07;;
7583;SDS011;3833;41.764;26.204;2023-02-28T13:42:48;23.77;;;16.07;;
7583;SDS011;3833;41.764;26.204;2023-02-28T13:45:23;23.50;;;17.47;;
7583;SDS011;3833;41.764;26.204;2023-02-28T13:47:53;22.27;;;16.30;;
7583;SDS011;3833;41.764;26.204;2023-02-28T13:50:23;23.40;;;16.83;;
7583;SDS011;3833;41.764;26.204;2023-02-28T13:52:58;26.23;;;17.33;;
7583;SDS011;3833;41.764;26.204;2023-02-28T13:55:50;21.60;;;15.70;;
7583;SDS011;3833;41.764;26.204;2023-02-28T13:58:27;23.37;;;15.50;;
7583;SDS011;3833;41.764;26.204;2023-02-28T14:01:16;17.53;;;15.20;;
7583;SDS011;3833;41.764;26.204;2023-02-28T14:06:56;22.07;;;14.53;;
7583;SDS011;3833;41.764;26.204;2023-02-28T14:09:24;17.50;;;14.37;;
7583;SDS011;3833;41.764;26.204;2023-02-28T14:11:54;18.03;;;13.83;;
7583;SDS011;3833;41.764;26.204;2023-02-28T14:14:53;20.00;;;13.23;;
7583;SDS011;3833;41.764;26.204;2023-02-28T14:17:22;17.90;;;12.80;;
7583;SDS011;3833;41.764;26.204;2023-02-28T14:19:50;15.13;;;12.10;;
7583;SDS011;3833;41.764;26.204;2023-02-28T14:22:21;15.97;;;12.93;;
7583;SDS011;3833;41.764;26.204;2023-02-28T14:25:08;16.17;;;13.03;;
7583;SDS011;3833;41.764;26.204;2023-02-28T14:27:44;14.50;;;12.73;;
7583;SDS011;3833;41.764;26.204;2023-02-28T14:33:21;19.00;;;11.97;;
7583;SDS011;3833;41.764;26.204;2023-02-28T14:36:12;16.17;;;11.77;;
7583;SDS011;3833;41.764;26.204;2023-02-28T14:38:46;16.03;;;13.23;;
7583;SDS011;3833;41.764;26.204;2023-02-28T14:41:22;15.30;;;12.67;;
7583;SDS011;3833;41.764;26.204;2023-02-28T14:43:51;17.50;;;12.83;;
7583;SDS011;3833;41.764;26.204;2023-02-28T14:46:21;13.80;;;12.13;;
7583;SDS011;3833;41.764;26.204;2023-02-28T14:48:50;14.20;;;11.57;;
7583;SDS011;3833;41.764;26.204;2023-02-28T14:51:18;13.73;;;11.90;;
7583;SDS011;3833;41.764;26.204;2023-02-28T14:53:49;15.03;;;11.67;;
7583;SDS011;3833;41.764;26.204;2023-02-28T14:56:20;14.60;;;12.40;;
7583;SDS011;3833;41.764;26.204;2023-02-28T14:58:52;15.93;;;11.83;;
7583;SDS011;3833;41.764;26.204;2023-02-28T15:01:20;15.40;;;12.63;;
7583;SDS011;3833;41.764;26.204;2023-02-28T15:03:48;13.40;;;11.43;;
7583;SDS011;3833;41.764;26.204;2023-02-28T15:06:23;14.80;;;13.23;;
7583;SDS011;3833;41.764;26.204;2023-02-28T15:11:40;16.50;;;14.60;;
7583;SDS011;3833;41.764;26.204;2023-02-28T15:14:07;17.10;;;14.47;;
7583;SDS011;3833;41.764;26.204;2023-02-28T15:16:45;14.50;;;11.17;;
7583;SDS011;3833;41.764;26.204;2023-02-28T15:19:18;18.93;;;13.37;;
7583;SDS011;3833;41.764;26.204;2023-02-28T15:21:50;16.80;;;13.93;;
7583;SDS011;3833;41.764;26.204;2023-02-28T15:24:21;13.37;;;11.17;;
7583;SDS011;3833;41.764;26.204;2023-02-28T15:26:58;13.83;;;11.23;;
7583;SDS011;3833;41.764;26.204;2023-02-28T15:29:27;12.10;;;10.77;;
7583;SDS011;3833;41.764;26.204;2023-02-28T15:31:56;15.67;;;11.57;;
7583;SDS011;3833;41.764;26.204;2023-02-28T15:34:27;14.17;;;10.50;;
7583;SDS011;3833;41.764;26.204;2023-02-28T15:37:00;13.40;;;10.17;;
7583;SDS011;3833;41.764;26.204;2023-02-28T15:39:29;14.20;;;10.63;;